Terminal Aerodrome Forecast
Issued by NWS

Home | Current Version | Previous Version | Text Only | Print | Product List | Glossary On
Versions: 1 2 3 4 5 6 7 8 9 10 11 12 13 14 15
896
FTUS46 KMFR 300541
TAFRBG
TAF
KRBG 300541Z 3006/0106 VRB03KT P6SM SCT080 BKN150
     FM300900 VRB03KT P6SM -RA SCT020 OVC030
     FM301400 VRB03KT P6SM -SHRA OVC015
     FM301800 35005KT P6SM SCT015 BKN030
     FM302200 36008KT P6SM SCT040=

USA.gov is the U.S. government's official web portal to all federal, state and local government web resources and services.